Time;durP1;ratioP1;P1;durP2;ratioP2;P2;SDS_P1;SDS_P2;PMS_P1;PMS_P2;Temp;Humidity;BMP_temperature;BMP_pressure;BME280_temperature;BME280_humidity;BME280_pressure;Samples;Min_cycle;Max_cycle;Signal;HPM_P1;HPM_P2
2021/04/29 00:01:18;;;;;;;17.75;14.05;;;12.70;99.90;;;;;;4982987;28;20113;-71
2021/04/29 00:03:44;;;;;;;29.80;15.20;;;12.90;99.90;;;;;;4972523;28;20062;-72
2021/04/29 00:06:10;;;;;;;19.42;14.00;;;12.70;99.90;;;;;;4982547;28;20023;-71
2021/04/29 00:08:37;;;;;;;23.58;14.43;;;12.80;99.90;;;;;;4971188;28;20086;-72
2021/04/29 00:11:04;;;;;;;15.50;13.95;;;12.80;99.90;;;;;;4975851;28;20043;-70
2021/04/29 00:13:30;;;;;;;16.42;14.05;;;12.90;99.90;;;;;;4976591;28;20411;-67
2021/04/29 00:15:56;;;;;;;17.13;13.88;;;13.00;99.90;;;;;;4966144;28;20031;-67
2021/04/29 00:18:22;;;;;;;20.80;14.63;;;12.80;99.90;;;;;;4972197;28;20027;-68
2021/04/29 00:20:48;;;;;;;19.77;13.70;;;12.80;99.90;;;;;;4968201;28;20543;-70
2021/04/29 00:23:13;;;;;;;16.42;12.70;;;12.60;99.90;;;;;;4969863;28;20034;-68
2021/04/29 00:25:39;;;;;;;22.73;12.82;;;12.70;99.90;;;;;;4967881;28;20058;-68
2021/04/29 00:28:05;;;;;;;15.65;10.02;;;12.70;99.90;;;;;;4968997;28;20062;-67
2021/04/29 00:30:31;;;;;;;16.13;10.45;;;12.60;99.90;;;;;;4966454;28;20030;-68
2021/04/29 00:32:56;;;;;;;12.73;8.90;;;12.50;99.90;;;;;;4967868;28;20039;-70
2021/04/29 00:35:22;;;;;;;15.88;7.97;;;12.50;99.90;;;;;;4965855;28;20588;-73
2021/04/29 00:37:48;;;;;;;11.93;8.18;;;12.30;99.90;;;;;;4966744;28;20578;-71
2021/04/29 00:40:15;;;;;;;14.75;7.80;;;12.30;99.90;;;;;;4965769;28;20535;-71
2021/04/29 00:42:42;;;;;;;10.93;7.82;;;12.20;99.90;;;;;;4964524;28;20026;-71
2021/04/29 00:45:10;;;;;;;9.18;7.13;;;12.20;99.90;;;;;;4965945;28;20051;-69
2021/04/29 00:47:36;;;;;;;10.32;7.72;;;12.20;99.90;;;;;;4971434;28;20054;-72
2021/04/29 00:50:08;;;;;;;16.52;7.22;;;12.10;99.90;;;;;;4967494;28;20102;-68
2021/04/29 00:52:34;;;;;;;10.43;7.95;;;12.20;99.90;;;;;;4971406;28;20042;-67
2021/04/29 00:55:00;;;;;;;12.02;7.65;;;12.20;99.90;;;;;;4966784;28;20023;-71
2021/04/29 00:57:26;;;;;;;17.58;8.98;;;12.10;99.90;;;;;;4962690;28;20443;-72
2021/04/29 00:59:53;;;;;;;10.95;7.88;;;12.10;99.90;;;;;;4967899;28;20506;-69
2021/04/29 01:02:20;;;;;;;9.48;7.68;;;12.00;99.90;;;;;;4968238;28;20031;-70
2021/04/29 01:04:53;;;;;;;13.68;8.45;;;11.90;99.90;;;;;;4967003;28;20479;-71
2021/04/29 01:07:21;;;;;;;11.38;7.18;;;11.90;99.90;;;;;;4966199;28;20571;-71
2021/04/29 01:10:17;;;;;;;14.10;7.55;;;11.90;99.90;;;;;;4968422;28;20049;-72
2021/04/29 01:12:58;;;;;;;10.00;7.82;;;11.80;99.90;;;;;;4970692;28;20112;-69
2021/04/29 01:15:25;;;;;;;10.75;7.85;;;11.80;99.90;;;;;;4969125;28;20155;-72
2021/04/29 01:17:52;;;;;;;14.25;7.90;;;11.70;99.90;;;;;;4970136;28;20030;-71
2021/04/29 01:20:38;;;;;;;13.90;7.50;;;11.80;99.90;;;;;;4968065;28;20038;-67
2021/04/29 01:23:03;;;;;;;16.17;8.87;;;11.80;99.90;;;;;;4969261;28;20031;-68
2021/04/29 01:25:32;;;;;;;13.82;8.07;;;11.90;99.90;;;;;;4967080;28;20026;-68
2021/04/29 01:27:58;;;;;;;14.55;8.10;;;11.70;99.90;;;;;;4968221;28;20118;-67
2021/04/29 01:30:26;;;;;;;16.45;8.02;;;11.70;99.90;;;;;;4981074;28;20604;-67
2021/04/29 01:32:53;;;;;;;15.45;8.30;;;11.70;99.90;;;;;;4967360;28;20019;-66
2021/04/29 01:35:19;;;;;;;13.40;7.93;;;11.70;99.90;;;;;;4965103;28;20039;-66
2021/04/29 01:37:47;;;;;;;11.85;7.82;;;11.70;99.90;;;;;;4965381;28;20097;-66
2021/04/29 01:40:13;;;;;;;17.92;8.77;;;11.70;99.90;;;;;;4964895;28;20042;-66
2021/04/29 01:42:39;;;;;;;10.40;8.27;;;11.60;99.90;;;;;;4970880;28;20054;-67
2021/04/29 01:45:06;;;;;;;15.40;8.20;;;11.60;99.90;;;;;;4965548;28;20403;-66
2021/04/29 01:47:34;;;;;;;11.88;7.50;;;11.70;99.90;;;;;;4967659;28;20041;-66
2021/04/29 01:50:01;;;;;;;13.40;8.35;;;11.60;99.90;;;;;;4965113;28;20020;-66
2021/04/29 01:52:27;;;;;;;13.30;8.32;;;11.60;99.90;;;;;;4968085;28;20031;-66
2021/04/29 01:54:54;;;;;;;15.65;8.85;;;11.60;99.90;;;;;;4968834;28;20041;-67
2021/04/29 01:57:20;;;;;;;11.10;8.10;;;11.60;99.90;;;;;;4968533;28;20025;-66
2021/04/29 01:59:46;;;;;;;12.18;8.40;;;11.60;99.90;;;;;;4967333;28;20387;-66
2021/04/29 02:02:12;;;;;;;10.30;8.70;;;11.60;99.90;;;;;;4967838;28;20022;-67
2021/04/29 02:04:37;;;;;;;9.80;8.57;;;11.60;99.90;;;;;;4967551;28;20031;-67
2021/04/29 02:07:03;;;;;;;11.68;8.90;;;11.60;99.90;;;;;;4964715;28;20027;-67
2021/04/29 02:09:29;;;;;;;10.30;8.43;;;11.60;99.90;;;;;;4969010;28;20110;-67
2021/04/29 02:12:00;;;;;;;12.30;8.48;;;11.50;99.90;;;;;;4966241;28;20026;-66
2021/04/29 02:14:51;;;;;;;14.70;9.10;;;11.50;99.90;;;;;;4968598;28;20449;-66
2021/04/29 02:17:42;;;;;;;8.93;8.02;;;11.60;99.90;;;;;;4967903;28;20030;-66
2021/04/29 02:20:10;;;;;;;13.07;8.77;;;11.60;99.90;;;;;;4968541;28;20036;-66
2021/04/29 02:22:39;;;;;;;13.55;9.82;;;11.40;99.90;;;;;;4961263;28;20030;-69
2021/04/29 02:25:06;;;;;;;13.57;9.38;;;11.60;99.90;;;;;;4968291;28;20106;-66
2021/04/29 02:27:34;;;;;;;11.48;8.93;;;11.50;99.90;;;;;;4968860;28;20035;-71
2021/04/29 02:30:00;;;;;;;15.13;9.52;;;11.50;99.90;;;;;;4967809;28;20085;-72
2021/04/29 02:32:26;;;;;;;17.75;9.48;;;11.40;99.90;;;;;;4965214;28;20030;-71
2021/04/29 02:34:52;;;;;;;10.77;8.70;;;11.40;99.90;;;;;;4968698;28;20022;-67
2021/04/29 02:37:18;;;;;;;14.18;8.88;;;11.30;99.90;;;;;;4962575;28;20444;-66
2021/04/29 02:39:44;;;;;;;12.88;8.82;;;11.40;99.90;;;;;;4968558;28;20027;-66
2021/04/29 02:42:12;;;;;;;10.30;9.10;;;11.40;99.90;;;;;;4961866;28;20026;-68
2021/04/29 02:44:38;;;;;;;15.18;9.20;;;11.40;99.90;;;;;;4968635;28;20101;-67
2021/04/29 02:47:05;;;;;;;17.98;9.70;;;11.40;99.90;;;;;;4968952;28;20023;-66
2021/04/29 02:49:31;;;;;;;14.88;9.25;;;11.30;99.90;;;;;;4968491;28;20039;-66
2021/04/29 02:51:58;;;;;;;13.38;8.80;;;11.30;99.90;;;;;;4967369;28;20601;-66
2021/04/29 02:54:24;;;;;;;17.63;9.75;;;11.20;99.90;;;;;;4965773;28;20054;-66
2021/04/29 02:56:50;;;;;;;13.60;10.07;;;11.20;99.90;;;;;;4956326;28;20062;-66
2021/04/29 02:59:16;;;;;;;14.43;9.52;;;11.30;99.90;;;;;;4968900;28;20058;-67
2021/04/29 03:01:42;;;;;;;15.40;8.70;;;11.20;99.90;;;;;;4958880;28;20034;-66
2021/04/29 03:04:09;;;;;;;11.95;8.25;;;11.10;99.90;;;;;;4949988;28;20045;-67
2021/04/29 03:06:35;;;;;;;13.70;8.10;;;11.10;99.90;;;;;;4956047;28;20023;-66
2021/04/29 03:09:01;;;;;;;12.52;8.73;;;11.20;99.90;;;;;;4949872;28;20082;-67
2021/04/29 03:11:28;;;;;;;13.30;9.10;;;11.20;99.90;;;;;;4958200;28;20062;-66
2021/04/29 03:13:53;;;;;;;13.57;9.23;;;11.10;99.90;;;;;;4966282;28;20046;-66
2021/04/29 03:16:19;;;;;;;12.35;9.90;;;11.10;99.90;;;;;;4969801;28;20015;-67
2021/04/29 03:18:45;;;;;;;9.77;7.93;;;11.10;99.90;;;;;;4971230;28;20471;-67
2021/04/29 03:21:11;;;;;;;10.57;8.10;;;10.90;99.90;;;;;;4969947;28;20399;-67
2021/04/29 03:23:37;;;;;;;10.93;9.02;;;11.00;99.90;;;;;;4970467;28;20030;-67
2021/04/29 03:26:03;;;;;;;11.00;8.27;;;11.00;99.90;;;;;;4961515;28;20023;-67
2021/04/29 03:28:29;;;;;;;12.50;9.05;;;11.00;99.90;;;;;;4972026;28;20034;-67
2021/04/29 03:30:56;;;;;;;12.00;8.82;;;10.90;99.90;;;;;;4971229;28;20023;-67
2021/04/29 03:33:22;;;;;;;9.80;8.70;;;10.90;99.90;;;;;;4971514;28;20027;-67
2021/04/29 03:35:47;;;;;;;9.98;8.70;;;10.90;99.90;;;;;;4962348;28;20401;-67
2021/04/29 03:38:13;;;;;;;13.93;8.38;;;10.90;99.90;;;;;;4961220;28;20066;-67
2021/04/29 03:40:39;;;;;;;9.02;8.07;;;10.80;99.90;;;;;;4969954;28;20089;-67
2021/04/29 03:43:05;;;;;;;9.48;8.57;;;10.90;99.90;;;;;;4973581;28;20037;-67
2021/04/29 03:45:31;;;;;;;13.45;8.48;;;10.90;99.90;;;;;;4966408;28;20528;-66
2021/04/29 03:47:57;;;;;;;13.57;8.73;;;10.90;99.90;;;;;;4965282;28;20027;-67
2021/04/29 03:50:23;;;;;;;12.88;8.80;;;10.90;99.90;;;;;;4969873;28;20030;-67
2021/04/29 03:52:48;;;;;;;9.93;8.55;;;10.90;99.90;;;;;;4970618;28;20463;-67
2021/04/29 03:55:14;;;;;;;9.00;8.07;;;10.80;99.90;;;;;;4969141;28;20027;-67
2021/04/29 03:57:40;;;;;;;10.50;8.68;;;10.90;99.90;;;;;;4970463;28;20027;-67
2021/04/29 04:00:07;;;;;;;17.52;8.32;;;10.80;99.90;;;;;;4967868;28;20554;-66
2021/04/29 04:02:33;;;;;;;13.05;8.35;;;10.80;99.90;;;;;;4968969;28;20042;-66
2021/04/29 04:04:59;;;;;;;14.27;8.70;;;10.80;99.90;;;;;;4968403;28;20031;-67
2021/04/29 04:07:25;;;;;;;9.82;7.72;;;10.70;99.90;;;;;;4967072;28;20045;-67
2021/04/29 04:09:50;;;;;;;14.18;8.73;;;10.70;99.90;;;;;;4969122;28;20510;-67
2021/04/29 04:12:16;;;;;;;11.43;8.90;;;10.70;99.90;;;;;;4972125;28;20023;-67
2021/04/29 04:14:42;;;;;;;9.88;8.57;;;10.60;99.90;;;;;;4970430;28;20526;-67
2021/04/29 04:17:07;;;;;;;10.43;8.93;;;10.70;99.90;;;;;;4967846;28;20097;-66
2021/04/29 04:19:33;;;;;;;10.65;9.02;;;10.80;99.90;;;;;;4963438;28;20034;-67
2021/04/29 04:21:59;;;;;;;10.27;9.23;;;10.70;99.90;;;;;;4966428;28;20490;-66
2021/04/29 04:24:24;;;;;;;12.50;8.77;;;10.70;99.90;;;;;;4970530;28;20551;-66
2021/04/29 04:26:50;;;;;;;10.00;8.63;;;10.80;99.90;;;;;;4966271;28;20074;-67
2021/04/29 04:29:16;;;;;;;11.82;8.75;;;10.80;99.90;;;;;;4971516;28;20030;-67
2021/04/29 04:31:41;;;;;;;10.27;8.38;;;10.90;99.90;;;;;;4966567;28;20102;-67
2021/04/29 04:34:07;;;;;;;8.82;8.10;;;10.90;99.90;;;;;;4972173;28;20031;-66
2021/04/29 04:36:33;;;;;;;10.55;7.63;;;10.90;99.90;;;;;;4964799;28;20038;-66
2021/04/29 04:38:58;;;;;;;10.77;7.78;;;10.80;99.90;;;;;;4972011;28;20026;-66
2021/04/29 04:41:24;;;;;;;9.43;7.25;;;10.70;99.90;;;;;;4964719;28;20519;-67
2021/04/29 04:43:49;;;;;;;11.30;7.85;;;10.70;99.90;;;;;;4970347;28;20399;-67
2021/04/29 04:46:15;;;;;;;11.80;7.75;;;10.70;99.90;;;;;;4965672;28;20392;-67
2021/04/29 04:48:43;;;;;;;8.10;7.25;;;10.50;99.90;;;;;;4959795;28;20042;-66
2021/04/29 04:51:08;;;;;;;8.23;7.43;;;10.70;99.90;;;;;;4964073;28;20106;-67
2021/04/29 04:53:34;;;;;;;11.38;7.57;;;10.60;99.90;;;;;;4971834;28;20110;-67
2021/04/29 04:56:00;;;;;;;10.88;6.72;;;10.70;99.90;;;;;;4964732;28;20154;-66
2021/04/29 04:58:25;;;;;;;7.95;7.15;;;10.80;99.90;;;;;;4971693;28;20031;-67
2021/04/29 05:00:51;;;;;;;10.20;6.95;;;10.80;99.90;;;;;;4964612;28;20549;-66
2021/04/29 05:03:17;;;;;;;11.38;6.72;;;10.70;99.90;;;;;;4968814;28;20037;-67
2021/04/29 05:05:44;;;;;;;9.00;7.32;;;10.60;99.90;;;;;;4964212;28;20031;-67
2021/04/29 05:08:10;;;;;;;11.93;6.43;;;10.60;99.90;;;;;;4971482;28;20055;-66
2021/04/29 05:10:37;;;;;;;8.70;7.07;;;10.60;99.90;;;;;;4965195;28;20051;-67
2021/04/29 05:13:06;;;;;;;9.52;8.10;;;10.60;99.90;;;;;;4971607;28;20057;-67
2021/04/29 05:15:34;;;;;;;9.82;7.25;;;10.70;99.90;;;;;;4965816;28;20023;-67
2021/04/29 05:18:00;;;;;;;10.70;7.38;;;10.60;99.90;;;;;;4961546;28;20037;-67
2021/04/29 05:20:26;;;;;;;9.52;6.68;;;10.50;99.90;;;;;;4960186;28;20114;-67
2021/04/29 05:22:52;;;;;;;8.00;6.57;;;10.60;99.90;;;;;;4964006;28;20054;-68
2021/04/29 05:25:18;;;;;;;8.23;7.03;;;10.50;99.90;;;;;;4961151;28;20496;-67
2021/04/29 05:27:45;;;;;;;9.20;7.07;;;10.50;99.90;;;;;;4966482;28;20067;-67
2021/04/29 05:30:11;;;;;;;8.15;6.50;;;10.50;99.90;;;;;;4966354;28;20039;-68
2021/04/29 05:32:37;;;;;;;7.38;6.13;;;11.00;99.90;;;;;;4970142;28;20026;-68
2021/04/29 05:35:04;;;;;;;8.35;6.47;;;10.80;99.90;;;;;;4968508;28;20034;-68
2021/04/29 05:37:30;;;;;;;11.75;7.35;;;10.70;99.90;;;;;;4967354;28;20061;-68
2021/04/29 05:39:55;;;;;;;7.40;6.22;;;10.50;99.90;;;;;;4967422;28;20455;-68
2021/04/29 05:42:21;;;;;;;8.88;7.50;;;10.50;99.90;;;;;;4964738;28;20022;-68
2021/04/29 05:44:47;;;;;;;11.18;7.00;;;10.60;99.90;;;;;;4954763;28;20479;-68
2021/04/29 05:47:12;;;;;;;9.43;7.10;;;10.60;99.90;;;;;;4961775;28;20023;-68
2021/04/29 05:49:40;;;;;;;8.63;7.32;;;10.60;99.90;;;;;;4959714;28;20089;-67
2021/04/29 05:52:05;;;;;;;7.95;6.85;;;10.60;99.90;;;;;;4963248;28;20531;-67
2021/04/29 05:54:33;;;;;;;10.63;6.70;;;10.70;99.90;;;;;;4968959;28;20035;-67
2021/04/29 05:56:59;;;;;;;9.23;7.05;;;10.60;99.90;;;;;;4961733;28;20020;-67
2021/04/29 05:59:24;;;;;;;7.63;7.03;;;10.60;99.90;;;;;;4955888;28;20085;-68
2021/04/29 06:01:50;;;;;;;12.57;6.80;;;10.60;99.90;;;;;;4961548;28;20128;-67
2021/04/29 06:04:15;;;;;;;8.88;6.35;;;10.50;99.90;;;;;;4964845;28;20042;-67
2021/04/29 06:06:41;;;;;;;10.00;6.97;;;10.60;99.90;;;;;;4967500;28;20023;-67
2021/04/29 06:09:07;;;;;;;7.95;6.80;;;10.60;99.90;;;;;;4967846;28;20106;-67
2021/04/29 06:11:33;;;;;;;12.98;6.65;;;10.60;99.90;;;;;;4967494;28;20053;-67
2021/04/29 06:13:59;;;;;;;10.68;7.50;;;10.40;99.90;;;;;;4964809;28;20059;-67
2021/04/29 06:16:24;;;;;;;8.98;6.55;;;10.50;99.90;;;;;;4964349;28;20062;-67
2021/04/29 06:18:50;;;;;;;11.20;6.93;;;10.60;99.90;;;;;;4969603;28;20034;-67
2021/04/29 06:21:16;;;;;;;8.48;6.82;;;10.60;99.90;;;;;;4966408;28;20035;-67
2021/04/29 06:23:41;;;;;;;9.50;6.97;;;10.60;99.90;;;;;;4969803;28;20042;-67
2021/04/29 06:26:07;;;;;;;7.55;6.78;;;10.60;99.90;;;;;;4966629;28;20027;-67
2021/04/29 06:28:33;;;;;;;11.85;7.78;;;10.60;99.90;;;;;;4966663;28;20101;-67
2021/04/29 06:30:58;;;;;;;8.57;6.85;;;10.70;99.90;;;;;;4958093;28;20020;-67
2021/04/29 06:33:24;;;;;;;7.80;7.10;;;10.70;99.90;;;;;;4962583;28;20030;-67
2021/04/29 06:35:51;;;;;;;9.48;6.82;;;10.50;99.90;;;;;;4963052;28;20487;-68
2021/04/29 06:38:17;;;;;;;7.63;6.65;;;10.60;99.90;;;;;;4967283;28;20495;-68
2021/04/29 06:40:43;;;;;;;19.50;6.90;;;10.60;99.90;;;;;;4964499;28;20038;-67
2021/04/29 06:43:08;;;;;;;12.05;6.43;;;10.60;99.90;;;;;;4966516;28;20031;-65
2021/04/29 06:45:34;;;;;;;8.48;6.40;;;10.60;99.90;;;;;;4969690;28;20050;-68
2021/04/29 06:48:00;;;;;;;13.50;6.32;;;10.60;99.90;;;;;;4973949;28;20035;-66
2021/04/29 06:50:25;;;;;;;6.50;5.90;;;10.60;99.90;;;;;;4968134;28;20511;-66
2021/04/29 06:52:51;;;;;;;10.30;6.68;;;10.70;99.90;;;;;;4973887;28;20034;-66
2021/04/29 06:55:17;;;;;;;9.45;5.97;;;10.70;99.90;;;;;;4970066;28;20061;-66
2021/04/29 06:57:42;;;;;;;8.15;6.25;;;10.80;99.90;;;;;;4966935;28;20439;-66
2021/04/29 07:00:08;;;;;;;10.60;6.75;;;10.80;99.90;;;;;;4971943;28;20018;-66
2021/04/29 07:02:34;;;;;;;7.43;6.40;;;10.70;99.90;;;;;;4965789;28;20035;-66
2021/04/29 07:05:00;;;;;;;8.35;6.07;;;10.70;99.90;;;;;;4971779;28;20023;-66
2021/04/29 07:07:25;;;;;;;10.82;6.57;;;10.70;99.90;;;;;;4964946;28;20506;-66
2021/04/29 07:09:51;;;;;;;14.68;6.28;;;10.80;99.90;;;;;;4971223;28;20047;-66
2021/04/29 07:12:17;;;;;;;7.80;5.72;;;10.70;99.90;;;;;;4972991;28;20023;-59
2021/04/29 07:14:42;;;;;;;9.07;6.43;;;11.10;99.90;;;;;;4969967;28;20027;-66
2021/04/29 07:17:09;;;;;;;9.27;6.03;;;10.90;99.90;;;;;;4973192;28;20023;-67
2021/04/29 07:19:34;;;;;;;11.02;5.57;;;10.70;99.90;;;;;;4967803;28;20035;-67
2021/04/29 07:22:00;;;;;;;7.22;6.32;;;10.80;99.90;;;;;;4960921;28;20078;-66
2021/04/29 07:24:26;;;;;;;6.78;5.90;;;10.90;99.90;;;;;;4971578;28;20034;-66
2021/04/29 07:26:52;;;;;;;10.43;6.43;;;10.90;99.90;;;;;;4963668;28;20011;-66
2021/04/29 07:29:17;;;;;;;9.25;6.22;;;11.00;99.90;;;;;;4972495;28;20038;-66
2021/04/29 07:31:43;;;;;;;10.52;6.28;;;10.90;99.90;;;;;;4963460;28;20419;-67
2021/04/29 07:34:10;;;;;;;11.82;6.20;;;11.00;99.90;;;;;;4965562;28;20024;-66
2021/04/29 07:36:36;;;;;;;9.50;6.25;;;11.00;99.90;;;;;;4961545;28;20033;-66
2021/04/29 07:39:04;;;;;;;8.32;6.25;;;10.90;99.90;;;;;;4973229;28;20101;-66
2021/04/29 07:41:30;;;;;;;9.95;5.50;;;10.90;99.90;;;;;;4962707;28;20066;-65
2021/04/29 07:43:57;;;;;;;6.88;5.38;;;11.00;99.90;;;;;;4973291;28;20627;-66
2021/04/29 07:46:23;;;;;;;11.00;5.45;;;11.00;99.90;;;;;;4969174;28;20027;-65
2021/04/29 07:48:49;;;;;;;9.90;5.03;;;10.80;99.90;;;;;;4973061;28;20423;-67
2021/04/29 07:51:14;;;;;;;8.55;4.35;;;10.70;99.90;;;;;;4968981;28;20038;-66
2021/04/29 07:53:40;;;;;;;7.40;4.80;;;10.70;99.90;;;;;;4957973;28;20376;-65
2021/04/29 07:56:06;;;;;;;9.70;4.25;;;10.70;99.90;;;;;;4965636;28;20039;-66
2021/04/29 07:58:31;;;;;;;6.78;4.55;;;10.70;99.90;;;;;;4973156;28;20504;-67
2021/04/29 08:00:57;;;;;;;5.53;4.05;;;10.90;99.90;;;;;;4966467;28;20027;-66
2021/04/29 08:03:23;;;;;;;7.20;4.40;;;10.80;99.90;;;;;;4971734;28;20019;-66
2021/04/29 08:05:49;;;;;;;5.93;4.82;;;10.80;99.90;;;;;;4964361;28;20030;-66
2021/04/29 08:08:15;;;;;;;10.18;4.97;;;10.80;99.90;;;;;;4971123;28;20562;-66
2021/04/29 08:10:41;;;;;;;9.82;4.82;;;10.90;99.90;;;;;;4966929;28;20070;-67
2021/04/29 08:13:10;;;;;;;9.98;4.75;;;11.00;99.90;;;;;;4955560;28;20027;-67
2021/04/29 08:15:36;;;;;;;6.97;4.43;;;11.00;99.90;;;;;;4959901;28;20484;-66
2021/04/29 08:18:01;;;;;;;7.78;4.90;;;11.10;99.90;;;;;;4966470;28;20041;-66
2021/04/29 08:20:27;;;;;;;10.40;5.05;;;11.20;99.90;;;;;;4967727;28;20050;-66
2021/04/29 08:22:53;;;;;;;7.63;4.35;;;11.40;99.90;;;;;;4965326;28;20029;-66
2021/04/29 08:25:19;;;;;;;7.18;4.60;;;11.30;99.90;;;;;;4970141;28;20034;-66
2021/04/29 08:27:44;;;;;;;6.40;4.28;;;11.30;99.90;;;;;;4971635;28;20058;-66
2021/04/29 08:30:13;;;;;;;9.80;4.63;;;11.20;99.90;;;;;;4962189;28;20033;-66
2021/04/29 08:32:39;;;;;;;5.35;3.70;;;11.20;99.90;;;;;;4962503;28;20035;-66
2021/04/29 08:35:05;;;;;;;6.82;4.60;;;11.10;99.90;;;;;;4957706;28;20019;-66
2021/04/29 08:37:30;;;;;;;10.20;4.32;;;11.10;99.90;;;;;;4969020;28;20038;-65
2021/04/29 08:39:56;;;;;;;6.20;3.83;;;11.20;99.90;;;;;;4970232;28;20035;-66
2021/04/29 08:42:26;;;;;;;5.93;3.65;;;11.40;99.90;;;;;;4963822;28;20058;-64
2021/04/29 08:44:52;;;;;;;7.97;3.63;;;11.50;99.90;;;;;;4966115;28;20034;-66
2021/04/29 08:47:18;;;;;;;8.02;3.55;;;11.30;99.90;;;;;;4960773;28;20026;-67
2021/04/29 08:49:44;;;;;;;7.85;4.22;;;11.40;99.90;;;;;;4968235;28;20106;-66
2021/04/29 08:52:09;;;;;;;6.70;3.90;;;11.50;99.90;;;;;;4961914;28;20027;-65
2021/04/29 08:54:38;;;;;;;9.13;4.13;;;11.50;99.90;;;;;;4968182;28;20077;-66
2021/04/29 08:57:05;;;;;;;11.48;4.15;;;11.60;99.90;;;;;;4954770;28;20023;-66
2021/04/29 08:59:30;;;;;;;8.45;4.35;;;11.70;99.90;;;;;;4962911;28;20063;-65
2021/04/29 09:01:56;;;;;;;5.80;3.72;;;11.70;99.90;;;;;;4956365;28;20028;-65
2021/04/29 09:04:23;;;;;;;8.68;3.70;;;11.60;99.90;;;;;;4952715;28;20047;-66
2021/04/29 09:06:49;;;;;;;9.82;3.88;;;11.70;99.90;;;;;;4961152;28;20019;-65
2021/04/29 09:09:17;;;;;;;6.97;3.97;;;11.70;99.90;;;;;;4969033;28;20035;-66
2021/04/29 09:11:55;;;;;;;7.18;4.55;;;11.80;99.90;;;;;;4965259;28;20034;-67
2021/04/29 09:14:31;;;;;;;37.70;4.90;;;12.00;99.90;;;;;;4970971;28;20686;-66
2021/04/29 09:16:57;;;;;;;;;;;12.10;99.90;;;;;;4970742;28;20135;-66
2021/04/29 09:19:25;;;;;;;6.65;3.78;;;12.30;99.90;;;;;;4970084;28;20298;-66
2021/04/29 09:21:52;;;;;;;6.47;3.30;;;12.30;99.90;;;;;;4965572;28;20031;-67
2021/04/29 09:24:18;;;;;;;9.68;3.30;;;12.30;99.90;;;;;;4970428;28;20431;-66
2021/04/29 09:26:44;;;;;;;6.13;3.75;;;12.30;99.90;;;;;;4964382;28;20035;-66
2021/04/29 09:29:14;;;;;;;6.35;3.10;;;12.60;99.90;;;;;;4971315;28;20082;-65
2021/04/29 09:31:43;;;;;;;5.97;2.92;;;12.30;99.90;;;;;;4964991;28;20051;-66
2021/04/29 09:34:09;;;;;;;3.40;2.97;;;12.30;99.90;;;;;;4971278;28;20025;-65
2021/04/29 09:36:45;;;;;;;5.68;3.28;;;12.30;99.90;;;;;;4958102;28;20069;-66
2021/04/29 09:39:17;;;;;;;6.93;3.30;;;12.20;99.90;;;;;;4958174;28;20023;-66
2021/04/29 09:41:51;;;;;;;8.68;3.08;;;12.50;99.90;;;;;;4958316;28;20062;-66
2021/04/29 09:44:21;;;;;;;7.75;3.40;;;12.50;99.90;;;;;;4962397;28;20019;-66
2021/04/29 09:46:48;;;;;;;5.85;3.03;;;12.80;99.90;;;;;;4962086;28;20492;-67
2021/04/29 09:49:26;;;;;;;6.30;2.78;;;12.70;99.90;;;;;;4957193;28;20035;-67
2021/04/29 09:51:54;;;;;;;5.22;2.65;;;12.40;99.90;;;;;;4966043;28;20395;-66
2021/04/29 09:54:23;;;;;;;6.97;2.97;;;12.40;99.90;;;;;;4969766;28;20031;-65
2021/04/29 09:57:01;;;;;;;5.13;2.58;;;12.30;99.90;;;;;;4965769;28;20126;-66
2021/04/29 09:59:28;;;;;;;7.78;2.67;;;12.30;99.90;;;;;;4969287;28;20054;-66
2021/04/29 10:01:55;;;;;;;8.73;3.20;;;12.40;99.90;;;;;;4962018;28;20041;-66
2021/04/29 10:04:22;;;;;;;6.20;2.97;;;12.40;99.90;;;;;;4969509;28;20057;-66
2021/04/29 10:06:49;;;;;;;4.15;2.78;;;12.40;99.90;;;;;;4959433;28;20530;-66
2021/04/29 10:09:14;;;;;;;14.38;4.50;;;12.80;99.90;;;;;;4970159;28;20034;-65
2021/04/29 10:11:43;;;;;;;4.35;2.80;;;13.00;99.90;;;;;;4964957;28;20530;-66
2021/04/29 10:14:11;;;;;;;6.95;2.85;;;13.00;99.90;;;;;;4966404;28;20026;-66
2021/04/29 10:16:37;;;;;;;7.15;2.58;;;12.70;99.90;;;;;;4963833;28;20081;-65
2021/04/29 10:19:03;;;;;;;3.65;2.05;;;12.70;99.90;;;;;;4970051;28;20545;-66
2021/04/29 10:21:29;;;;;;;4.95;2.67;;;12.90;99.90;;;;;;4968783;28;20035;-65
2021/04/29 10:23:55;;;;;;;9.40;3.38;;;13.10;99.90;;;;;;4968079;28;20400;-66
2021/04/29 10:26:28;;;;;;;5.03;2.53;;;12.80;99.90;;;;;;4967867;28;20027;-65
2021/04/29 10:29:03;;;;;;;11.10;3.17;;;13.00;99.90;;;;;;4965860;28;20038;-65
2021/04/29 10:31:31;;;;;;;7.03;2.50;;;13.20;99.90;;;;;;4962510;28;20031;-66
2021/04/29 10:34:14;;;;;;;4.70;2.35;;;13.00;99.90;;;;;;4974375;28;20121;-65
2021/04/29 10:36:41;;;;;;;5.95;2.78;;;13.20;99.90;;;;;;4966367;28;20684;-66
2021/04/29 10:39:19;;;;;;;5.15;2.40;;;13.40;99.90;;;;;;4973145;28;20054;-66
2021/04/29 10:41:47;;;;;;;3.80;2.20;;;13.40;99.90;;;;;;4967102;28;20545;-66
2021/04/29 10:44:16;;;;;;;8.55;2.45;;;13.60;99.90;;;;;;4972691;28;20110;-64
2021/04/29 10:46:44;;;;;;;5.43;2.55;;;13.70;99.90;;;;;;4965699;28;20035;-65
2021/04/29 10:49:14;;;;;;;3.80;2.50;;;13.50;99.90;;;;;;4972889;28;20037;-66
2021/04/29 10:51:42;;;;;;;2.28;2.00;;;13.50;99.90;;;;;;4966916;28;20038;-66
2021/04/29 10:54:09;;;;;;;3.65;2.00;;;13.20;99.90;;;;;;4963357;28;20035;-65
2021/04/29 10:56:35;;;;;;;9.93;2.20;;;13.20;99.90;;;;;;4970762;28;20027;-65
2021/04/29 10:59:14;;;;;;;5.70;2.40;;;13.00;99.90;;;;;;4973986;28;20150;-66
2021/04/29 11:01:42;;;;;;;3.50;1.95;;;13.00;99.90;;;;;;4967730;28;20527;-65
2021/04/29 11:04:21;;;;;;;8.27;3.55;;;13.00;99.90;;;;;;4973171;28;20653;-65
2021/04/29 11:06:48;;;;;;;5.40;2.00;;;14.00;99.90;;;;;;4961966;28;20038;-66
2021/04/29 11:09:18;;;;;;;3.60;2.08;;;13.20;99.90;;;;;;4973292;28;20033;-65
2021/04/29 11:11:45;;;;;;;6.28;2.40;;;13.00;99.90;;;;;;4968906;28;20027;-66
2021/04/29 11:14:19;;;;;;;3.10;2.13;;;13.40;99.90;;;;;;4961648;28;20089;-66
2021/04/29 11:16:57;;;;;;;7.38;1.98;;;13.60;99.90;;;;;;4965577;28;20031;-67
2021/04/29 11:19:42;;;;;;;5.63;2.17;;;13.50;99.90;;;;;;4973081;28;20019;-66
2021/04/29 11:22:30;;;;;;;5.35;1.58;;;14.00;99.90;;;;;;4965990;28;20053;-66
2021/04/29 11:24:56;;;;;;;3.17;1.90;;;14.00;99.90;;;;;;4959688;28;20025;-64
2021/04/29 11:27:33;;;;;;;4.60;1.55;;;13.90;99.90;;;;;;4957479;28;20071;-64
2021/04/29 11:30:02;;;;;;;2.78;1.50;;;14.40;99.90;;;;;;4965499;28;20031;-64
2021/04/29 11:32:33;;;;;;;6.38;2.00;;;14.20;99.90;;;;;;4960472;28;20038;-57
2021/04/29 11:35:00;;;;;;;3.92;1.80;;;14.20;99.90;;;;;;4964253;28;20142;-65
2021/04/29 11:37:27;;;;;;;3.17;1.70;;;14.10;99.90;;;;;;4966989;28;20033;-65
2021/04/29 11:40:03;;;;;;;9.73;1.90;;;14.30;99.90;;;;;;4970569;28;20031;-65
2021/04/29 11:42:31;;;;;;;6.00;1.75;;;14.50;99.90;;;;;;4964430;28;20023;-64
2021/04/29 11:45:14;;;;;;;7.05;1.80;;;14.50;99.90;;;;;;4969979;28;20031;-65
2021/04/29 11:48:15;;;;;;;7.22;1.98;;;14.50;99.90;;;;;;4971816;28;20041;-64
2021/04/29 11:50:47;;;;;;;9.07;1.98;;;14.60;99.90;;;;;;4963435;28;20264;-64
2021/04/29 11:53:17;;;;;;;7.00;1.85;;;14.80;99.90;;;;;;4972539;28;20097;-64
2021/04/29 11:55:46;;;;;;;3.03;1.73;;;15.10;99.90;;;;;;4966611;28;20419;-64
2021/04/29 11:58:14;;;;;;;3.67;2.30;;;15.10;99.90;;;;;;4972878;28;20032;-65
2021/04/29 12:00:51;;;;;;;7.72;2.00;;;14.90;99.90;;;;;;4967029;28;20110;-65
2021/04/29 12:03:18;;;;;;;7.82;1.95;;;14.90;99.90;;;;;;4969482;28;20019;-65
2021/04/29 12:05:52;;;;;;;2.45;1.80;;;15.10;99.90;;;;;;4961718;28;20030;-65
2021/04/29 12:08:24;;;;;;;6.43;2.00;;;15.30;99.90;;;;;;4970833;28;20113;-65
2021/04/29 12:10:50;;;;;;;4.68;1.85;;;15.40;99.90;;;;;;4970536;28;20053;-65
2021/04/29 12:13:28;;;;;;;7.78;2.03;;;15.40;99.90;;;;;;4970015;28;20031;-65
2021/04/29 12:15:58;;;;;;;6.60;1.83;;;15.60;99.90;;;;;;4965659;28;20055;-65
2021/04/29 12:18:24;;;;;;;8.15;2.10;;;15.80;99.90;;;;;;4972292;28;20479;-65
2021/04/29 12:20:51;;;;;;;2.25;2.05;;;15.20;99.90;;;;;;4965919;28;20074;-65
2021/04/29 12:23:17;;;;;;;2.88;2.03;;;15.60;99.90;;;;;;4972091;28;20559;-65
2021/04/29 12:25:54;;;;;;;4.18;1.85;;;15.50;99.90;;;;;;4966796;28;20019;-68
2021/04/29 12:28:19;;;;;;;7.32;1.98;;;15.30;99.90;;;;;;4964671;28;20133;-65
2021/04/29 12:30:45;;;;;;;5.88;2.15;;;15.20;99.90;;;;;;4964424;28;20106;-65
2021/04/29 12:33:20;;;;;;;3.65;2.30;;;15.20;99.90;;;;;;4968217;28;20038;-65
2021/04/29 12:35:46;;;;;;;3.95;1.98;;;15.20;99.90;;;;;;4966110;28;20105;-65
2021/04/29 12:38:18;;;;;;;5.82;1.92;;;15.30;99.90;;;;;;4968064;28;20031;-64
2021/04/29 12:40:44;;;;;;;5.60;2.20;;;15.30;99.90;;;;;;4965681;28;20026;-64
2021/04/29 12:43:18;;;;;;;3.80;2.03;;;15.20;99.90;;;;;;4971689;28;20042;-64
2021/04/29 12:46:05;;;;;;;3.58;1.88;;;14.90;99.90;;;;;;4968836;28;20023;-64